Time;durP1;ratioP1;P1;durP2;ratioP2;P2;SDS_P1;SDS_P2;PMS_P1;PMS_P2;Temp;Humidity;BMP_temperature;BMP_pressure;BME280_temperature;BME280_humidity;BME280_pressure;Samples;Min_cycle;Max_cycle;Signal;HPM_P1;HPM_P2
2021/06/08 00:02:01;;;;;;;10.05;5.07;;;;;;;16.87;62.93;99765.06;5073504;28;20090;-70
2021/06/08 00:04:30;;;;;;;10.05;5.15;;;;;;;16.83;62.95;99764.25;5073894;28;20090;-70
2021/06/08 00:06:59;;;;;;;8.77;5.47;;;;;;;16.73;63.10;99760.22;5073775;28;20041;-70
2021/06/08 00:09:29;;;;;;;7.68;5.53;;;;;;;16.62;63.06;99767.38;5073743;28;20380;-70
2021/06/08 00:11:57;;;;;;;7.53;5.45;;;;;;;16.60;63.47;99766.56;5073765;28;20135;-70
2021/06/08 00:14:26;;;;;;;7.80;5.55;;;;;;;16.66;63.24;99768.97;5074006;28;20040;-70
2021/06/08 00:16:55;;;;;;;6.97;5.30;;;;;;;16.79;62.71;99770.41;5073554;28;20135;-70
2021/06/08 00:19:24;;;;;;;8.80;5.25;;;;;;;16.79;63.04;99767.81;5073536;28;20469;-70
2021/06/08 00:21:52;;;;;;;7.33;4.17;;;;;;;16.88;62.30;99770.16;5073687;28;20127;-70
2021/06/08 00:24:21;;;;;;;10.23;5.53;;;;;;;16.88;62.14;99759.84;5073951;28;20039;-70
2021/06/08 00:26:51;;;;;;;8.90;4.95;;;;;;;16.85;62.56;99764.22;5073912;28;20470;-70
2021/06/08 00:29:20;;;;;;;6.57;4.78;;;;;;;16.77;62.31;99761.00;5072443;28;20052;-70
2021/06/08 00:31:48;;;;;;;7.05;5.05;;;;;;;16.76;62.43;99765.31;5073318;28;20044;-71
2021/06/08 00:34:17;;;;;;;7.50;5.03;;;;;;;16.80;62.20;99764.34;5073615;28;20451;-71
2021/06/08 00:36:45;;;;;;;7.20;5.05;;;;;;;16.75;62.51;99769.59;5073425;28;20037;-70
2021/06/08 00:39:14;;;;;;;9.57;5.60;;;;;;;16.86;62.23;99771.94;5073418;28;20525;-70
2021/06/08 00:41:44;;;;;;;8.52;5.35;;;;;;;16.82;62.27;99761.75;5073501;28;20102;-70
2021/06/08 00:44:17;;;;;;;6.93;4.75;;;;;;;16.70;62.74;99765.44;5073499;28;20493;-70
2021/06/08 00:46:47;;;;;;;7.70;5.35;;;;;;;16.58;62.98;99760.59;5073411;28;20497;-71
2021/06/08 00:49:16;;;;;;;8.40;4.95;;;;;;;16.52;63.12;99771.91;5073672;28;20048;-70
2021/06/08 00:51:45;;;;;;;6.72;5.50;;;;;;;16.48;63.39;99771.97;5073396;28;20478;-71
2021/06/08 00:54:13;;;;;;;7.90;4.70;;;;;;;16.58;63.24;99771.72;5073342;28;20044;-70
2021/06/08 00:56:44;;;;;;;8.77;5.20;;;;;;;16.55;62.99;99765.81;5073214;28;20033;-70
2021/06/08 00:59:14;;;;;;;8.90;5.28;;;;;;;16.56;63.33;99764.91;5073299;28;20470;-70
2021/06/08 01:01:43;;;;;;;7.28;5.03;;;;;;;16.55;63.28;99763.25;5073333;28;20052;-70
2021/06/08 01:04:12;;;;;;;7.25;4.72;;;;;;;16.53;63.35;99757.28;5073220;28;20474;-70
2021/06/08 01:06:40;;;;;;;8.47;5.17;;;;;;;16.48;63.59;99765.09;5073571;28;20214;-70
2021/06/08 01:09:09;;;;;;;8.35;5.15;;;;;;;16.39;63.58;99754.97;5073123;28;20431;-70
2021/06/08 01:11:37;;;;;;;8.23;5.20;;;;;;;16.39;63.88;99759.28;5073437;28;20385;-70
2021/06/08 01:14:06;;;;;;;8.50;5.45;;;;;;;16.44;63.57;99758.28;5073771;28;20048;-70
2021/06/08 01:16:37;;;;;;;7.60;5.43;;;;;;;16.42;63.64;99754.91;5077233;28;20498;-71
2021/06/08 01:19:05;;;;;;;8.23;5.25;;;;;;;16.33;63.88;99749.13;5076920;28;20456;-70
2021/06/08 01:21:36;;;;;;;7.22;4.93;;;;;;;16.35;63.48;99747.34;5077207;28;20082;-70
2021/06/08 01:24:05;;;;;;;7.53;4.97;;;;;;;16.44;63.09;99753.16;5076873;28;20052;-70
2021/06/08 01:26:34;;;;;;;6.97;5.35;;;;;;;16.39;63.28;99760.13;5092510;28;20490;-70
2021/06/08 01:29:05;;;;;;;8.32;5.30;;;;;;;16.32;62.78;99757.72;5076991;28;20119;-71
2021/06/08 01:31:36;;;;;;;6.60;4.95;;;;;;;16.26;63.13;99748.44;5076494;28;20041;-71
2021/06/08 01:34:05;;;;;;;8.40;5.45;;;;;;;16.31;63.14;99756.03;5076694;28;20505;-70
2021/06/08 01:36:40;;;;;;;9.48;5.38;;;;;;;16.30;62.68;99755.19;5076926;28;20128;-70
2021/06/08 01:39:09;;;;;;;8.50;5.15;;;;;;;16.34;62.85;99751.66;5076548;28;20056;-70
2021/06/08 01:41:39;;;;;;;11.15;5.55;;;;;;;16.41;63.08;99757.53;5076824;28;20052;-70
2021/06/08 01:44:08;;;;;;;6.95;5.05;;;;;;;16.38;62.10;99761.03;5076515;28;20052;-70
2021/06/08 01:46:36;;;;;;;6.55;4.93;;;;;;;16.40;62.25;99758.41;5076419;28;20482;-70
2021/06/08 01:49:05;;;;;;;7.97;5.88;;;;;;;16.31;62.21;99748.31;5076668;28;20044;-70
2021/06/08 01:51:45;;;;;;;7.32;5.57;;;;;;;16.23;62.57;99765.66;5076562;28;20036;-71
2021/06/08 01:54:21;;;;;;;8.55;5.18;;;;;;;16.03;63.37;99772.09;5076369;28;20049;-70
2021/06/08 01:56:58;;;;;;;7.75;5.15;;;;;;;15.80;64.11;99773.47;5076526;28;20402;-71
2021/06/08 01:59:33;;;;;;;7.25;5.22;;;;;;;15.78;64.63;99770.94;5076185;28;20052;-70
2021/06/08 02:02:11;;;;;;;7.28;5.38;;;;;;;15.81;64.55;99760.53;5076230;28;20041;-71
2021/06/08 02:04:44;;;;;;;9.27;5.47;;;;;;;15.74;64.88;99769.28;5076170;28;20055;-71
2021/06/08 02:07:31;;;;;;;9.32;5.30;;;;;;;15.81;64.92;99770.84;5076102;28;20451;-70
2021/06/08 02:10:09;;;;;;;9.00;6.07;;;;;;;15.72;64.60;99763.31;5075993;28;20049;-70
2021/06/08 02:12:39;;;;;;;12.52;5.88;;;;;;;15.75;64.58;99780.41;5076007;28;20079;-71
2021/06/08 02:15:09;;;;;;;10.55;5.65;;;;;;;15.71;64.83;99771.94;5075905;28;20079;-71
2021/06/08 02:17:41;;;;;;;7.95;5.28;;;;;;;15.74;65.19;99778.75;5075834;28;20067;-71
2021/06/08 02:20:16;;;;;;;9.07;5.90;;;;;;;15.60;65.59;99781.56;5075845;28;20481;-71
2021/06/08 02:22:50;;;;;;;10.02;6.18;;;;;;;15.48;65.69;99774.09;5075879;28;20135;-71
2021/06/08 02:25:22;;;;;;;7.68;5.45;;;;;;;15.34;66.31;99774.31;5075778;28;20549;-71
2021/06/08 02:27:52;;;;;;;7.90;5.47;;;;;;;15.33;66.30;99771.78;5075746;28;20060;-71
2021/06/08 02:30:22;;;;;;;7.80;5.60;;;;;;;15.26;66.88;99765.88;5075985;28;20044;-71
2021/06/08 02:32:51;;;;;;;;;;;;;;;15.24;66.60;99771.94;5075797;28;20103;-70
2021/06/08 02:35:22;;;;;;;8.20;5.45;;;;;;;15.18;66.77;99766.91;5075583;28;19920;-71
2021/06/08 02:37:57;;;;;;;10.13;5.93;;;;;;;15.16;67.25;99772.09;5074438;28;20052;-71
2021/06/08 02:40:26;;;;;;;9.23;5.50;;;;;;;15.08;67.14;99765.38;5075526;28;20057;-71
2021/06/08 02:42:59;;;;;;;8.50;5.35;;;;;;;15.13;66.83;99773.84;5075454;28;20048;-71
2021/06/08 02:45:29;;;;;;;9.05;6.20;;;;;;;15.07;67.15;99769.66;5075398;28;20482;-71
2021/06/08 02:47:59;;;;;;;8.65;5.50;;;;;;;15.01;67.18;99768.94;5075282;28;20048;-71
2021/06/08 02:50:29;;;;;;;8.90;5.97;;;;;;;14.90;67.59;99775.97;5075285;28;20041;-71
2021/06/08 02:53:00;;;;;;;8.85;5.47;;;;;;;14.87;67.54;99776.03;5075440;28;20113;-71
2021/06/08 02:55:29;;;;;;;9.20;5.70;;;;;;;14.90;68.10;99779.38;5075188;28;20045;-71
2021/06/08 02:57:59;;;;;;;8.10;5.45;;;;;;;15.08;67.51;99776.50;5090630;28;20068;-71
2021/06/08 03:00:28;;;;;;;8.25;5.28;;;;;;;15.18;67.19;99787.47;5075424;28;20106;-71
2021/06/08 03:03:02;;;;;;;8.95;6.15;;;;;;;15.15;67.01;99785.81;5074915;28;20498;-71
2021/06/08 03:05:35;;;;;;;8.10;5.97;;;;;;;15.11;67.19;99781.59;5075032;28;20505;-71
2021/06/08 03:08:11;;;;;;;7.50;5.38;;;;;;;15.08;66.80;99781.66;5075233;28;20430;-70
2021/06/08 03:10:42;;;;;;;8.05;5.57;;;;;;;15.14;66.83;99775.56;5074849;28;20135;-71
2021/06/08 03:13:12;;;;;;;9.10;5.50;;;;;;;15.29;66.34;99788.13;5074801;28;20044;-70
2021/06/08 03:15:45;;;;;;;9.35;5.68;;;;;;;15.38;66.03;99795.66;5074710;28;20048;-71
2021/06/08 03:18:16;;;;;;;7.57;5.63;;;;;;;15.49;65.52;99793.81;5074606;28;20115;-71
2021/06/08 03:20:48;;;;;;;8.88;5.50;;;;;;;15.46;65.29;99798.13;5074683;28;20055;-71
2021/06/08 03:23:22;;;;;;;11.45;5.93;;;;;;;15.45;65.21;99801.59;5074542;28;20058;-71
2021/06/08 03:25:52;;;;;;;9.02;6.35;;;;;;;15.23;65.84;99780.53;5074557;28;20041;-71
2021/06/08 03:28:21;;;;;;;;;;;;;;;15.22;65.73;99801.97;5075207;28;20048;-71
2021/06/08 03:30:52;;;;;;;8.82;6.28;;;;;;;15.15;66.36;99803.81;5074463;28;19927;-71
2021/06/08 03:33:21;;;;;;;8.52;5.63;;;;;;;15.23;66.11;99803.69;5074129;28;20052;-71
2021/06/08 03:35:51;;;;;;;7.50;5.10;;;;;;;15.42;66.20;99802.47;5074396;28;20049;-71
2021/06/08 03:38:21;;;;;;;;;;;;;;;15.57;65.96;99815.09;5073957;28;20123;-71
2021/06/08 03:40:52;;;;;;;7.68;5.00;;;;;;;15.71;65.60;99813.09;5074584;28;19970;-71
2021/06/08 03:43:22;;;;;;;8.18;6.03;;;;;;;15.77;65.15;99799.25;5074153;28;20055;-71
2021/06/08 03:45:51;;;;;;;7.78;5.45;;;;;;;15.85;65.07;99812.81;5074134;28;20140;-70
2021/06/08 03:48:20;;;;;;;8.95;5.75;;;;;;;15.76;65.11;99813.88;5074421;28;20048;-70
2021/06/08 03:50:50;;;;;;;10.57;6.07;;;;;;;15.78;65.27;99814.69;5074355;28;20124;-71
2021/06/08 03:53:21;;;;;;;9.10;6.25;;;;;;;15.82;65.20;99811.16;5074017;28;20052;-71
2021/06/08 03:55:51;;;;;;;9.07;6.00;;;;;;;15.84;65.37;99826.56;5074046;28;20054;-71
2021/06/08 03:58:21;;;;;;;10.17;6.10;;;;;;;15.96;65.25;99819.44;5073931;28;20067;-71
2021/06/08 04:00:54;;;;;;;10.30;6.05;;;;;;;16.16;65.18;99815.59;5073937;28;20055;-71
2021/06/08 04:03:23;;;;;;;9.13;6.13;;;;;;;16.31;64.65;99817.88;5073894;28;20120;-70
2021/06/08 04:05:54;;;;;;;7.73;4.27;;;;;;;16.42;64.37;99821.03;5074175;28;20064;-70
2021/06/08 04:08:27;;;;;;;8.35;5.72;;;;;;;16.67;63.33;99806.78;5073865;28;20331;-70
2021/06/08 04:10:56;;;;;;;7.18;5.35;;;;;;;16.84;62.61;99809.81;5089864;28;20051;-70
2021/06/08 04:13:24;;;;;;;11.15;5.47;;;;;;;17.07;61.76;99812.66;5073738;28;20560;-70
2021/06/08 04:15:53;;;;;;;7.18;5.13;;;;;;;17.28;60.89;99812.09;5074035;28;20040;-70
2021/06/08 04:18:30;;;;;;;6.80;4.25;;;;;;;17.47;60.27;99814.22;5073690;28;20098;-70
2021/06/08 04:21:00;;;;;;;7.97;5.03;;;;;;;17.59;59.63;99816.50;5074004;28;20452;-69
2021/06/08 04:23:31;;;;;;;6.28;4.85;;;;;;;17.79;58.87;99811.63;5073531;28;20044;-70
2021/06/08 04:26:00;;;;;;;7.88;4.80;;;;;;;17.90;58.46;99807.84;5073643;28;20082;-70
2021/06/08 04:28:29;;;;;;;6.88;4.60;;;;;;;18.12;58.25;99813.25;5073910;28;20489;-70
2021/06/08 04:30:58;;;;;;;7.70;5.05;;;;;;;18.25;57.65;99804.25;5073547;28;20040;-70
2021/06/08 04:33:28;;;;;;;7.03;4.90;;;;;;;18.45;57.33;99811.41;5073365;28;20533;-70
2021/06/08 04:35:57;;;;;;;7.47;4.63;;;;;;;18.61;56.86;99813.50;5073533;28;20078;-70
2021/06/08 04:38:26;;;;;;;6.43;4.35;;;;;;;18.81;56.68;99812.88;5073613;28;20048;-70
2021/06/08 04:40:56;;;;;;;8.18;4.47;;;;;;;18.98;56.43;99820.09;5073433;28;20389;-70
2021/06/08 04:43:26;;;;;;;6.15;4.35;;;;;;;19.13;56.07;99812.66;5073463;28;20079;-70
2021/06/08 04:45:54;;;;;;;7.03;4.53;;;;;;;19.29;55.72;99813.00;5073402;28;20044;-70
2021/06/08 04:48:23;;;;;;;8.35;5.20;;;;;;;19.51;55.36;99808.78;5074510;28;20048;-70
2021/06/08 04:50:52;;;;;;;7.68;4.63;;;;;;;19.67;54.89;99815.16;5077564;28;20127;-70
2021/06/08 04:53:21;;;;;;;10.87;5.23;;;;;;;19.87;54.64;99817.00;5077114;28;20548;-70
2021/06/08 04:55:51;;;;;;;10.80;4.82;;;;;;;20.04;54.05;99814.63;4716536;22;22364;-63
2021/06/08 04:58:22;;;;;;;9.57;5.40;;;;;;;20.17;53.40;99815.03;5117405;28;20452;-62
2021/06/08 05:01:00;;;;;;;9.32;4.95;;;;;;;20.34;53.03;99812.69;5117849;28;20051;-64
2021/06/08 05:03:34;;;;;;;7.28;4.63;;;;;;;20.39;52.39;99815.94;5118170;28;20412;-63
2021/06/08 05:06:07;;;;;;;7.65;4.50;;;;;;;20.44;52.14;99820.03;5118090;28;20439;-63
2021/06/08 05:08:39;;;;;;;7.07;4.25;;;;;;;20.44;52.15;99812.25;5117975;28;20127;-64
2021/06/08 05:11:14;;;;;;;6.78;4.78;;;;;;;20.49;51.78;99817.28;5117914;28;20058;-63
2021/06/08 05:13:47;;;;;;;6.57;4.82;;;;;;;20.59;51.89;99821.19;5117881;28;20044;-63
2021/06/08 05:16:17;;;;;;;8.52;4.90;;;;;;;20.73;52.04;99821.50;5117828;28;20052;-63
2021/06/08 05:18:52;;;;;;;;;;;;;;;20.88;51.55;99820.88;5118095;28;20039;-63
2021/06/08 05:21:22;;;;;;;9.10;4.32;;;;;;;21.01;51.40;99822.09;5117821;28;20335;-63
2021/06/08 05:23:54;;;;;;;7.88;4.72;;;;;;;21.15;51.02;99824.97;5117743;28;20047;-63
2021/06/08 05:26:26;;;;;;;6.20;4.22;;;;;;;21.22;50.89;99825.56;5117799;28;20074;-63
2021/06/08 05:29:01;;;;;;;6.85;5.03;;;;;;;21.27;50.20;99829.66;5117445;28;20097;-63
2021/06/08 05:31:31;;;;;;;7.57;4.97;;;;;;;21.20;49.90;99827.38;5099351;28;20064;-63
2021/06/08 05:34:03;;;;;;;;;;;;;;;21.29;49.98;99827.84;5117886;28;20055;-64
2021/06/08 05:36:33;;;;;;;7.93;4.40;;;;;;;21.34;49.82;99825.91;5117452;28;20010;-64
2021/06/08 05:39:02;;;;;;;6.82;4.40;;;;;;;21.38;49.71;99822.25;5117179;28;20163;-63
2021/06/08 05:41:31;;;;;;;8.15;4.47;;;;;;;21.58;49.77;99826.59;5116797;28;20438;-63
2021/06/08 05:44:06;;;;;;;6.43;4.13;;;;;;;21.41;49.58;99784.06;5105530;28;20123;-64
2021/06/08 05:46:37;;;;;;;9.02;4.60;;;;;;;21.78;49.62;99826.59;5115529;28;20047;-64
2021/06/08 05:49:07;;;;;;;7.75;5.07;;;;;;;21.90;49.00;99830.44;5117280;28;20134;-63
2021/06/08 05:51:37;;;;;;;6.28;4.70;;;;;;;21.90;48.99;99827.84;5116646;28;20043;-63
2021/06/08 05:54:08;;;;;;;6.80;4.72;;;;;;;21.95;48.79;99828.47;5117487;28;20055;-64
2021/06/08 05:56:39;;;;;;;6.53;4.50;;;;;;;22.03;48.55;99827.22;5116840;28;20043;-64
2021/06/08 05:59:14;;;;;;;6.18;4.82;;;;;;;22.14;48.48;99829.34;5116698;28;20492;-63
2021/06/08 06:01:46;;;;;;;8.40;4.78;;;;;;;22.23;48.26;99822.84;5116367;28;20048;-63
2021/06/08 06:04:20;;;;;;;8.38;4.50;;;;;;;22.43;48.01;99826.25;5117049;28;20052;-63
2021/06/08 06:06:53;;;;;;;7.50;4.32;;;;;;;22.53;47.88;99832.69;5116824;28;20052;-63
2021/06/08 06:09:25;;;;;;;7.07;4.10;;;;;;;22.56;46.95;99816.94;5117204;28;20530;-63
2021/06/08 06:11:56;;;;;;;7.95;4.10;;;;;;;22.73;46.48;99825.72;5116803;28;20051;-63
2021/06/08 06:14:29;;;;;;;7.35;4.55;;;;;;;22.92;46.38;99826.50;5116715;28;20122;-63
2021/06/08 06:17:07;;;;;;;8.45;5.00;;;;;;;22.96;45.89;99830.66;5116479;28;20040;-63
2021/06/08 06:19:37;;;;;;;6.65;4.35;;;;;;;23.01;46.05;99831.28;5116461;28;20043;-64
2021/06/08 06:22:08;;;;;;;;;;;;;;;23.11;46.62;99835.09;5116923;28;20040;-63
2021/06/08 06:24:41;;;;;;;7.30;4.25;;;;;;;23.21;46.22;99831.13;5116594;28;19969;-63
2021/06/08 06:27:11;;;;;;;6.82;4.30;;;;;;;23.34;45.97;99832.22;5116261;28;20044;-63
2021/06/08 06:29:42;;;;;;;7.07;4.03;;;;;;;23.46;45.56;99831.63;5115966;28;20100;-63
2021/06/08 06:32:14;;;;;;;7.57;4.50;;;;;;;23.56;45.50;99829.41;5116289;28;20097;-63
2021/06/08 06:34:44;;;;;;;7.78;4.55;;;;;;;23.64;45.41;99835.88;5116272;28;20047;-63
2021/06/08 06:37:16;;;;;;;6.43;4.63;;;;;;;23.81;45.81;99833.25;5116263;28;20573;-64
2021/06/08 06:39:47;;;;;;;6.07;4.20;;;;;;;23.91;45.91;99834.47;5115847;28;20044;-63
2021/06/08 06:42:17;;;;;;;5.22;3.78;;;;;;;24.08;45.73;99830.13;5107760;28;20044;-63
2021/06/08 06:44:49;;;;;;;7.05;4.20;;;;;;;24.27;45.67;99830.81;5095182;28;20127;-63
2021/06/08 06:47:19;;;;;;;6.05;3.92;;;;;;;24.36;45.21;99833.78;5095270;28;20148;-64
2021/06/08 06:49:51;;;;;;;9.25;4.00;;;;;;;24.40;45.10;99832.69;5095569;28;20051;-63
2021/06/08 06:52:24;;;;;;;7.05;4.50;;;;;;;24.51;45.03;99835.56;5095518;28;20080;-63
2021/06/08 06:54:56;;;;;;;7.22;4.40;;;;;;;24.64;44.35;99831.31;5095524;28;20500;-63
2021/06/08 06:57:28;;;;;;;7.32;4.20;;;;;;;24.72;44.78;99830.91;5094501;28;20048;-64
2021/06/08 07:00:04;;;;;;;8.50;4.43;;;;;;;24.87;44.13;99824.84;5095230;28;20072;-63
2021/06/08 07:02:36;;;;;;;7.45;4.38;;;;;;;24.95;43.87;99822.66;5095129;28;20048;-64
2021/06/08 07:05:23;;;;;;;8.80;4.13;;;;;;;25.12;43.53;99824.28;5094895;28;20052;-64
2021/06/08 07:07:56;;;;;;;6.28;4.18;;;;;;;25.22;43.26;99825.41;5094789;28;20052;-64
2021/06/08 07:10:26;;;;;;;6.60;4.05;;;;;;;25.41;42.65;99819.97;5094896;28;20040;-65
2021/06/08 07:13:03;;;;;;;5.97;3.60;;;;;;;25.48;41.91;99818.72;5094008;28;20484;-63
2021/06/08 07:15:35;;;;;;;5.95;3.88;;;;;;;25.53;41.79;99812.25;5096725;28;20059;-63
2021/06/08 07:18:05;;;;;;;7.90;4.18;;;;;;;25.67;41.74;99816.69;5095018;28;20063;-63
2021/06/08 07:20:37;;;;;;;5.53;3.97;;;;;;;25.77;41.04;99820.44;5094559;28;20048;-63
2021/06/08 07:23:08;;;;;;;5.88;3.75;;;;;;;25.78;40.14;99816.84;5094856;28;20508;-63
2021/06/08 07:25:40;;;;;;;6.47;3.78;;;;;;;25.84;40.04;99821.72;5094807;28;20113;-63
2021/06/08 07:28:12;;;;;;;6.90;3.80;;;;;;;26.01;39.84;99824.13;5094601;28;20048;-63
2021/06/08 07:30:46;;;;;;;6.78;3.70;;;;;;;26.20;39.48;99827.31;5108620;28;20044;-63
2021/06/08 07:33:23;;;;;;;5.55;3.97;;;;;;;26.30;40.05;99820.56;5112737;28;20055;-64
2021/06/08 07:35:54;;;;;;;4.80;3.63;;;;;;;26.40;38.82;99829.53;5110530;28;20433;-63
2021/06/08 07:38:29;;;;;;;4.75;3.40;;;;;;;26.43;37.97;99831.97;5098225;28;20050;-63
2021/06/08 07:41:01;;;;;;;4.70;3.60;;;;;;;26.57;38.28;99826.69;5100240;28;20126;-66
2021/06/08 07:43:36;;;;;;;6.88;3.85;;;;;;;26.75;37.92;99813.34;5113890;28;20073;-63
2021/06/08 07:46:14;;;;;;;6.15;3.50;;;;;;;26.78;37.40;99821.06;5115276;28;20055;-63
2021/06/08 07:48:52;;;;;;;5.30;3.65;;;;;;;26.79;37.33;99822.72;5114982;28;20044;-63
2021/06/08 07:51:22;;;;;;;7.53;3.45;;;;;;;26.94;38.07;99811.25;5114910;28;20056;-64
2021/06/08 07:53:52;;;;;;;4.80;3.60;;;;;;;27.10;38.04;99819.75;5114830;28;20388;-63
2021/06/08 07:56:22;;;;;;;6.05;4.10;;;;;;;27.12;37.18;99820.50;5113884;28;20123;-63
2021/06/08 07:58:51;;;;;;;5.82;3.78;;;;;;;27.18;37.07;99814.88;5114967;28;20438;-64
2021/06/08 08:01:26;;;;;;;5.30;3.45;;;;;;;27.16;36.67;99822.00;5114741;28;20040;-63
2021/06/08 08:03:58;;;;;;;5.32;3.72;;;;;;;27.16;36.74;99812.31;5114703;28;20055;-63
2021/06/08 08:06:27;;;;;;;5.53;3.97;;;;;;;27.24;36.68;99819.69;5114576;28;20139;-63
2021/06/08 08:09:02;;;;;;;7.68;3.90;;;;;;;27.45;36.38;99817.44;5114351;28;20036;-64
2021/06/08 08:11:33;;;;;;;5.32;3.60;;;;;;;27.69;36.28;99815.78;5114283;28;20126;-63
2021/06/08 08:14:05;;;;;;;7.70;3.70;;;;;;;27.92;35.60;99823.72;5114667;28;20047;-63
2021/06/08 08:16:36;;;;;;;5.90;3.95;;;;;;;28.01;34.80;99816.16;5096280;28;20055;-63
2021/06/08 08:19:08;;;;;;;8.07;3.78;;;;;;;27.91;35.16;99815.94;5114356;28;20051;-63
2021/06/08 08:21:44;;;;;;;7.38;3.38;;;;;;;27.93;34.70;99820.13;5114385;28;20051;-64
2021/06/08 08:24:12;;;;;;;5.10;3.53;;;;;;;27.94;34.26;99815.75;5114156;28;20112;-63
2021/06/08 08:26:42;;;;;;;5.05;3.45;;;;;;;27.84;34.51;99815.53;5114330;28;20377;-63
2021/06/08 08:29:11;;;;;;;5.03;3.58;;;;;;;27.88;35.29;99817.00;5114016;28;20067;-64
2021/06/08 08:31:41;;;;;;;4.97;3.35;;;;;;;28.10;34.15;99811.13;5113144;28;20082;-64
2021/06/08 08:34:29;;;;;;;6.07;3.58;;;;;;;28.28;33.32;99809.81;5051369;28;20063;-63
2021/06/08 08:36:58;;;;;;;5.95;3.17;;;;;;;28.41;32.01;99807.16;5051463;28;20192;-64
2021/06/08 08:39:29;;;;;;;4.15;2.92;;;;;;;28.51;32.03;99808.16;5051425;28;20049;-63
2021/06/08 08:42:05;;;;;;;6.22;3.25;;;;;;;28.63;32.63;99802.03;5051341;28;20079;-63
2021/06/08 08:44:38;;;;;;;4.97;3.17;;;;;;;28.88;32.46;99801.09;5051559;28;20051;-63
2021/06/08 08:47:09;;;;;;;5.72;3.38;;;;;;;28.78;31.24;99764.13;5114250;28;20052;-63
2021/06/08 08:49:39;;;;;;;4.95;2.92;;;;;;;29.03;29.99;99798.13;5114049;28;20071;-64
2021/06/08 08:52:12;;;;;;;5.43;3.70;;;;;;;28.95;30.28;99797.06;5114039;28;20056;-63
2021/06/08 08:54:44;;;;;;;4.72;3.42;;;;;;;29.03;30.55;99797.31;5114117;28;20527;-63
2021/06/08 08:57:18;;;;;;;8.90;3.95;;;;;;;29.14;30.90;99792.09;5113731;28;20519;-64
2021/06/08 08:59:50;;;;;;;4.78;3.20;;;;;;;29.29;30.71;99787.50;5113940;28;20374;-64
2021/06/08 09:02:40;;;;;;;4.90;3.45;;;;;;;29.36;31.58;99793.97;5051523;28;20073;-64
2021/06/08 09:05:12;;;;;;;4.85;3.60;;;;;;;29.43;30.78;99795.16;5051365;28;20057;-64
2021/06/08 09:07:47;;;;;;;6.03;3.80;;;;;;;29.51;30.68;99784.91;5051111;28;20048;-63
2021/06/08 09:10:21;;;;;;;5.13;3.50;;;;;;;29.58;30.35;99794.84;5051238;28;20067;-64
2021/06/08 09:12:53;;;;;;;5.85;3.65;;;;;;;29.51;29.88;99791.00;5051257;28;20088;-64
2021/06/08 09:15:25;;;;;;;6.50;3.55;;;;;;;29.32;30.03;99787.28;5051576;28;20076;-65
2021/06/08 09:17:59;;;;;;;4.60;3.58;;;;;;;29.34;30.86;99785.34;5051278;28;20076;-63
2021/06/08 09:20:32;;;;;;;6.05;3.70;;;;;;;29.56;32.28;99790.66;5073027;28;20099;-63
2021/06/08 09:23:06;;;;;;;7.43;4.10;;;;;;;29.71;31.37;99787.66;5114173;28;20055;-64
2021/06/08 09:25:41;;;;;;;7.38;4.05;;;;;;;29.81;31.26;99785.19;5095496;28;20445;-64
2021/06/08 09:28:25;;;;;;;7.38;3.88;;;;;;;30.03;31.94;99779.91;5113803;28;20059;-63
2021/06/08 09:31:01;;;;;;;6.85;3.55;;;;;;;30.10;31.43;99783.72;5113735;28;20055;-63
2021/06/08 09:33:36;;;;;;;7.47;3.95;;;;;;;30.01;31.15;99771.28;5113492;28;20096;-63
2021/06/08 09:36:10;;;;;;;5.80;4.00;;;;;;;29.84;31.41;99774.41;5115922;28;20135;-64
2021/06/08 09:38:45;;;;;;;5.00;3.80;;;;;;;29.81;31.31;99770.22;5117208;28;20126;-63
2021/06/08 09:41:25;;;;;;;5.57;3.72;;;;;;;29.92;31.45;99766.75;5117235;28;20050;-63
2021/06/08 09:44:03;;;;;;;5.40;3.90;;;;;;;29.65;30.70;99763.63;5117762;28;20055;-64
2021/06/08 09:46:43;;;;;;;5.47;4.15;;;;;;;29.65;30.71;99761.00;5117670;28;20055;-63
2021/06/08 09:49:20;;;;;;;6.47;3.88;;;;;;;29.68;30.73;99768.66;5117357;28;20139;-61
2021/06/08 09:51:58;;;;;;;6.55;3.92;;;;;;;29.68;30.96;99758.13;5117212;28;20047;-63
2021/06/08 09:54:29;;;;;;;7.80;3.67;;;;;;;29.95;31.17;99761.22;5117009;28;20531;-63
2021/06/08 09:57:12;;;;;;;5.07;3.72;;;;;;;30.16;31.91;99759.50;5116038;28;20055;-63
2021/06/08 09:59:47;;;;;;;5.20;3.70;;;;;;;30.17;30.53;99755.94;5116794;28;20052;-63
2021/06/08 10:02:34;;;;;;;6.28;3.80;;;;;;;30.18;30.67;99756.78;5117370;28;20047;-63
2021/06/08 10:05:19;;;;;;;5.60;4.05;;;;;;;30.07;33.03;99757.63;5116942;28;20058;-63
2021/06/08 10:07:55;;;;;;;6.40;4.00;;;;;;;30.14;31.63;99756.19;5116869;28;20138;-63
2021/06/08 10:10:24;;;;;;;5.85;4.00;;;;;;;30.26;32.72;99742.03;5116901;28;20059;-63
2021/06/08 10:13:02;;;;;;;6.63;3.70;;;;;;;30.18;33.06;99747.09;5116704;28;20079;-64
2021/06/08 10:15:35;;;;;;;6.60;4.28;;;;;;;30.18;30.92;99757.63;5116890;28;20048;-64
2021/06/08 10:18:09;;;;;;;5.72;3.88;;;;;;;30.34;30.46;99752.81;5116652;28;20051;-64
2021/06/08 10:20:47;;;;;;;4.55;3.80;;;;;;;30.62;29.95;99751.38;5098303;28;20043;-64
2021/06/08 10:23:22;;;;;;;8.25;4.55;;;;;;;30.57;29.46;99760.66;5116712;28;20059;-63
2021/06/08 10:25:56;;;;;;;6.28;4.00;;;;;;;30.50;29.21;99742.69;5116319;28;20095;-63
2021/06/08 10:28:30;;;;;;;6.55;3.72;;;;;;;30.54;29.00;99739.81;5082170;28;20051;-63
2021/06/08 10:31:02;;;;;;;4.85;3.67;;;;;;;30.70;29.11;99740.22;5116424;28;20451;-64
2021/06/08 10:33:58;;;;;;;5.05;3.72;;;;;;;30.89;29.86;99737.75;5116353;28;20051;-64
2021/06/08 10:36:37;;;;;;;4.55;3.70;;;;;;;31.15;31.73;99739.03;5116473;28;20081;-64
2021/06/08 10:39:11;;;;;;;7.72;4.07;;;;;;;31.23;30.53;99743.66;5116568;28;20466;-63
2021/06/08 10:41:42;;;;;;;5.10;3.60;;;;;;;31.40;31.60;99743.06;5115978;28;20039;-64
2021/06/08 10:44:20;;;;;;;4.82;3.80;;;;;;;31.47;30.17;99742.44;5116095;28;20051;-64
2021/06/08 10:46:51;;;;;;;4.45;3.50;;;;;;;31.55;29.94;99737.34;5115920;28;20047;-64
2021/06/08 10:49:35;;;;;;;5.70;3.75;;;;;;;31.74;29.49;99726.03;5116257;28;20078;-64
2021/06/08 10:52:11;;;;;;;6.80;3.67;;;;;;;31.42;29.84;99731.41;5115879;28;20047;-64
2021/06/08 10:54:41;;;;;;;4.97;3.67;;;;;;;31.01;29.79;99727.03;5116057;28;20047;-65
2021/06/08 10:57:14;;;;;;;4.68;3.53;;;;;;;31.17;28.66;99737.94;5114959;28;20491;-64
2021/06/08 10:59:48;;;;;;;7.20;3.97;;;;;;;31.14;28.44;99721.56;5115973;28;20051;-63
2021/06/08 11:02:45;;;;;;;5.00;3.95;;;;;;;31.10;30.12;99731.50;5115608;28;20043;-64
2021/06/08 11:05:15;;;;;;;6.22;3.97;;;;;;;30.73;30.53;99725.00;5115686;28;20052;-64
2021/06/08 11:07:52;;;;;;;;;;;;;;;30.47;31.53;99721.84;5116081;28;20052;-64
2021/06/08 11:11:00;;;;;;;6.82;3.70;;;;;;;30.57;31.15;99710.59;5115749;28;19927;-64
2021/06/08 11:13:55;;;;;;;6.10;4.38;;;;;;;30.95;30.21;99718.81;5115278;28;20039;-63
2021/06/08 11:16:29;;;;;;;5.68;4.03;;;;;;;30.87;29.05;99718.56;5115274;28;20067;-62
2021/06/08 11:19:02;;;;;;;5.57;4.10;;;;;;;30.07;29.26;99717.28;5115304;28;20069;-63
2021/06/08 11:21:36;;;;;;;6.03;4.05;;;;;;;29.86;29.68;99725.13;5115218;28;20047;-63
2021/06/08 11:24:36;;;;;;;5.75;3.97;;;;;;;30.32;28.66;99717.84;5115490;28;20130;-63
2021/06/08 11:27:06;;;;;;;5.20;3.97;;;;;;;30.64;28.39;99719.66;5115319;28;20079;-63
2021/06/08 11:29:46;;;;;;;6.03;4.18;;;;;;;30.98;28.31;99715.88;5115278;28;20047;-64
2021/06/08 11:32:37;;;;;;;5.15;3.63;;;;;;;31.33;29.22;99711.09;5115457;28;20094;-64
2021/06/08 11:35:12;;;;;;;5.30;3.80;;;;;;;31.52;28.12;99707.75;5115156;28;20492;-63
2021/06/08 11:38:02;;;;;;;6.18;3.88;;;;;;;31.55;27.77;99700.41;5115151;28;20134;-63
2021/06/08 11:40:42;;;;;;;;;;;;;;;31.48;26.92;99701.88;5115573;28;20130;-63
2021/06/08 11:43:36;;;;;;;5.97;4.00;;;;;;;31.50;27.19;99699.97;5115072;28;20008;-64
2021/06/08 11:46:11;;;;;;;5.47;3.92;;;;;;;31.71;27.03;99698.09;5114761;28;20093;-64
2021/06/08 11:48:41;;;;;;;5.35;4.10;;;;;;;31.98;28.17;99684.28;5114824;28;20059;-63
2021/06/08 11:51:34;;;;;;;5.55;4.32;;;;;;;32.06;28.50;99686.25;5115060;28;20095;-64
2021/06/08 11:54:06;;;;;;;5.50;4.40;;;;;;;32.24;29.65;99695.16;5096973;28;20047;-64
2021/06/08 11:56:46;;;;;;;6.88;4.65;;;;;;;32.47;31.06;99692.09;5114338;28;20126;-64
2021/06/08 11:59:17;;;;;;;7.35;4.60;;;;;;;32.54;28.70;99684.47;5113944;28;20115;-64
2021/06/08 12:01:53;;;;;;;5.82;4.20;;;;;;;32.31;27.66;99683.91;5114428;28;20134;-64